Time;durP1;ratioP1;P1;durP2;ratioP2;P2;SDS_P1;SDS_P2;PMS_P1;PMS_P2;Temp;Humidity;BMP_temperature;BMP_pressure;BME280_temperature;BME280_humidity;BME280_pressure;Samples;Min_cycle;Max_cycle;Signal;HPM_P1;HPM_P2
2021/07/28 00:00:05;;;;;;;13.13;8.18;;;17.40;98.00;;;;;;6219427;23;20397;-78
2021/07/28 00:02:31;;;;;;;12.68;7.80;;;17.50;98.00;;;;;;6246534;23;20075;-78
2021/07/28 00:04:56;;;;;;;13.50;7.80;;;17.50;98.00;;;;;;6247674;23;20400;-79
2021/07/28 00:07:22;;;;;;;16.05;8.70;;;17.50;98.00;;;;;;6247009;23;20087;-79
2021/07/28 00:09:47;;;;;;;13.70;8.43;;;17.40;97.90;;;;;;6247935;23;20038;-79
2021/07/28 00:12:13;;;;;;;15.98;8.52;;;17.50;98.00;;;;;;6246144;23;20058;-77
2021/07/28 00:14:39;;;;;;;13.90;9.52;;;17.40;98.00;;;;;;6219212;23;20016;-77
2021/07/28 00:17:11;;;;;;;15.70;9.25;;;17.40;97.90;;;;;;6247325;23;20001;-80
2021/07/28 00:19:54;;;;;;;17.55;8.60;;;17.40;97.90;;;;;;6220624;23;20377;-78
2021/07/28 00:25:05;;;;;;;12.63;8.75;;;17.40;98.00;;;;;;6247742;23;20007;-78
2021/07/28 00:27:30;;;;;;;15.68;8.32;;;17.40;98.00;;;;;;6246797;23;20011;-78
2021/07/28 00:29:57;;;;;;;15.60;8.40;;;17.40;98.00;;;;;;6221472;23;20008;-78
2021/07/28 00:32:22;;;;;;;12.30;8.90;;;17.50;98.00;;;;;;6248563;23;20004;-78
2021/07/28 00:34:48;;;;;;;15.02;8.98;;;17.40;98.00;;;;;;6249181;23;20011;-77
2021/07/28 00:37:14;;;;;;;14.10;9.65;;;17.50;98.00;;;;;;6248368;23;20000;-77
2021/07/28 00:39:39;;;;;;;14.35;9.18;;;17.50;98.00;;;;;;6249495;23;20302;-78
2021/07/28 00:42:05;;;;;;;18.67;8.73;;;17.50;98.00;;;;;;6248759;23;20370;-77
2021/07/28 00:44:30;;;;;;;13.88;8.68;;;17.50;98.00;;;;;;6246835;23;20039;-78
2021/07/28 00:46:56;;;;;;;11.80;7.82;;;17.50;98.00;;;;;;6222394;23;20058;-77
2021/07/28 00:49:24;;;;;;;12.02;7.88;;;17.50;98.00;;;;;;6221858;23;20018;-78
2021/07/28 00:51:51;;;;;;;13.23;7.65;;;17.50;98.00;;;;;;6222864;23;20054;-78
2021/07/28 00:54:17;;;;;;;13.82;7.90;;;17.50;98.00;;;;;;6222162;23;20012;-78
2021/07/28 00:56:43;;;;;;;12.93;8.52;;;17.50;98.00;;;;;;6222097;23;20011;-79
2021/07/28 00:59:09;;;;;;;14.75;8.10;;;17.50;98.00;;;;;;6221390;23;20499;-77
2021/07/28 01:01:36;;;;;;;13.10;8.05;;;17.50;97.90;;;;;;6220988;23;20008;-80
2021/07/28 01:04:02;;;;;;;12.07;7.72;;;17.50;98.00;;;;;;6249037;23;20005;-78
2021/07/28 01:06:30;;;;;;;14.32;8.32;;;17.40;98.00;;;;;;6221308;23;20032;-78
2021/07/28 01:08:55;;;;;;;14.55;8.32;;;17.30;98.00;;;;;;6248549;23;20002;-78
2021/07/28 01:11:23;;;;;;;15.98;8.52;;;17.30;98.00;;;;;;6248056;23;20311;-78
2021/07/28 01:13:49;;;;;;;14.82;8.65;;;17.20;98.00;;;;;;6222287;23;20000;-79
2021/07/28 01:16:21;;;;;;;14.45;8.75;;;17.10;97.80;;;;;;6219923;23;20015;-77
2021/07/28 01:18:48;;;;;;;12.55;7.60;;;17.10;97.70;;;;;;6248884;23;20365;-78
2021/07/28 01:21:14;;;;;;;16.30;8.98;;;17.10;97.60;;;;;;6221634;23;20000;-76
2021/07/28 01:23:42;;;;;;;16.52;9.40;;;17.10;97.40;;;;;;6248718;23;20298;-80
2021/07/28 01:26:08;;;;;;;14.95;8.50;;;17.10;97.40;;;;;;6248065;23;20003;-78
2021/07/28 01:28:35;;;;;;;12.80;8.73;;;17.10;97.30;;;;;;6248529;23;20050;-79
2021/07/28 01:31:03;;;;;;;12.50;9.00;;;17.10;97.50;;;;;;6246950;23;20000;-79
2021/07/28 01:33:33;;;;;;;12.25;8.13;;;17.10;97.10;;;;;;6221533;23;20317;-79
2021/07/28 01:36:00;;;;;;;14.55;9.07;;;17.00;97.00;;;;;;6248323;23;20382;-79
2021/07/28 01:38:26;;;;;;;11.82;8.60;;;17.00;97.30;;;;;;6220697;23;20370;-78
2021/07/28 01:40:56;;;;;;;14.05;8.90;;;16.90;97.20;;;;;;6221259;23;20004;-79
2021/07/28 01:43:23;;;;;;;14.45;9.18;;;16.90;97.10;;;;;;6247381;23;20016;-78
2021/07/28 01:45:52;;;;;;;15.98;10.23;;;16.90;97.30;;;;;;6246971;23;20004;-78
2021/07/28 01:48:17;;;;;;;16.52;8.63;;;16.90;97.20;;;;;;6247584;23;20026;-78
2021/07/28 01:50:47;;;;;;;12.73;8.45;;;16.90;97.30;;;;;;6247868;23;20039;-78
2021/07/28 01:53:14;;;;;;;14.25;9.43;;;16.90;97.30;;;;;;6247225;23;20007;-77
2021/07/28 01:55:40;;;;;;;13.65;8.88;;;16.80;97.50;;;;;;6247622;23;20004;-78
2021/07/28 01:58:06;;;;;;;15.70;10.02;;;16.80;97.10;;;;;;6247591;23;20008;-78
2021/07/28 02:00:32;;;;;;;14.38;9.73;;;16.80;97.10;;;;;;6246566;23;19992;-78
2021/07/28 02:03:04;;;;;;;12.73;8.80;;;16.70;97.00;;;;;;6221581;23;20007;-77
2021/07/28 02:05:37;;;;;;;12.15;8.65;;;16.70;96.70;;;;;;6247712;23;20243;-78
2021/07/28 02:08:06;;;;;;;14.27;8.68;;;16.60;96.70;;;;;;6248310;23;20004;-78
2021/07/28 02:10:33;;;;;;;16.20;8.55;;;16.50;96.60;;;;;;6248016;23;20004;-78
2021/07/28 02:13:00;;;;;;;16.88;10.05;;;16.40;96.50;;;;;;6248598;23;20028;-78
2021/07/28 02:15:27;;;;;;;17.67;11.15;;;16.30;96.50;;;;;;6219857;23;20004;-78
2021/07/28 02:17:54;;;;;;;12.50;8.88;;;16.30;96.00;;;;;;6248243;23;20366;-79
2021/07/28 02:20:20;;;;;;;14.02;9.52;;;16.30;95.90;;;;;;6220967;23;20062;-78
2021/07/28 02:22:47;;;;;;;13.35;9.07;;;16.20;95.90;;;;;;6248288;23;19999;-78
2021/07/28 02:25:13;;;;;;;16.25;9.82;;;16.10;95.70;;;;;;6221029;23;20525;-77
2021/07/28 02:27:39;;;;;;;16.88;10.50;;;16.10;95.40;;;;;;6248095;23;20049;-78
2021/07/28 02:30:07;;;;;;;13.10;9.40;;;16.20;94.90;;;;;;6220255;23;20448;-78
2021/07/28 02:32:33;;;;;;;16.40;10.05;;;16.20;95.20;;;;;;6247850;23;20008;-78
2021/07/28 02:34:58;;;;;;;13.88;9.65;;;16.30;94.80;;;;;;6248032;23;20085;-78
2021/07/28 02:37:24;;;;;;;15.57;9.30;;;16.20;95.00;;;;;;6221030;23;20000;-79
2021/07/28 02:39:50;;;;;;;13.30;8.77;;;16.20;94.80;;;;;;6247936;23;20004;-80
2021/07/28 02:42:16;;;;;;;16.27;10.60;;;16.20;94.70;;;;;;6247747;23;20008;-79
2021/07/28 02:44:44;;;;;;;17.02;10.20;;;16.20;94.80;;;;;;6245495;23;20032;-79
2021/07/28 02:47:10;;;;;;;13.25;9.70;;;16.20;94.60;;;;;;6220778;23;20008;-79
2021/07/28 02:49:37;;;;;;;14.07;8.82;;;16.20;94.70;;;;;;6247476;23;20434;-79
2021/07/28 02:52:03;;;;;;;14.50;9.35;;;16.30;94.70;;;;;;6247364;23;20000;-79
2021/07/28 02:54:28;;;;;;;15.10;9.90;;;16.20;95.00;;;;;;6247418;23;20005;-78
2021/07/28 02:56:54;;;;;;;21.25;10.63;;;16.20;94.90;;;;;;6247806;23;20086;-78
2021/07/28 02:59:20;;;;;;;15.68;10.20;;;16.20;94.70;;;;;;6245943;23;20007;-79
2021/07/28 03:01:45;;;;;;;15.30;10.88;;;16.20;94.90;;;;;;6246625;23;20253;-79
2021/07/28 03:04:11;;;;;;;15.45;9.90;;;16.20;94.70;;;;;;6220969;23;20004;-78
2021/07/28 03:06:37;;;;;;;13.55;9.02;;;16.10;94.70;;;;;;6221408;23;20046;-79
2021/07/28 03:09:02;;;;;;;17.02;9.30;;;16.10;94.80;;;;;;6221167;23;20004;-79
2021/07/28 03:11:28;;;;;;;17.45;9.48;;;16.10;94.80;;;;;;6247315;23;20063;-78
2021/07/28 03:13:54;;;;;;;14.85;9.57;;;16.10;94.50;;;;;;6247268;23;20006;-78
2021/07/28 03:16:19;;;;;;;18.20;10.43;;;16.10;94.50;;;;;;6219081;23;20058;-78
2021/07/28 03:18:45;;;;;;;17.33;9.90;;;16.10;94.30;;;;;;6246645;23;20059;-78
2021/07/28 03:21:11;;;;;;;12.55;9.25;;;16.20;94.20;;;;;;6247526;23;20054;-78
2021/07/28 03:23:36;;;;;;;14.35;9.60;;;16.20;94.40;;;;;;6247737;23;20012;-78
2021/07/28 03:26:02;;;;;;;16.05;10.07;;;16.20;94.20;;;;;;6248086;23;20004;-79
2021/07/28 03:28:28;;;;;;;14.88;8.70;;;16.20;94.70;;;;;;6245251;23;20012;-78
2021/07/28 03:30:54;;;;;;;16.13;10.13;;;16.10;94.80;;;;;;6246055;23;20001;-78
2021/07/28 03:33:20;;;;;;;16.90;9.52;;;16.10;95.10;;;;;;6247130;23;20381;-78
2021/07/28 03:35:45;;;;;;;13.48;9.05;;;16.10;95.20;;;;;;6247815;23;20015;-78
2021/07/28 03:38:11;;;;;;;15.35;9.45;;;16.10;95.20;;;;;;6220852;23;20000;-78
2021/07/28 03:40:37;;;;;;;16.40;9.02;;;16.10;95.40;;;;;;6247422;23;19996;-78
2021/07/28 03:43:04;;;;;;;13.70;8.60;;;16.10;95.40;;;;;;6220802;23;20056;-79
2021/07/28 03:45:33;;;;;;;14.05;8.82;;;16.10;95.30;;;;;;6218633;23;20040;-78
2021/07/28 03:47:58;;;;;;;14.45;9.63;;;16.20;95.80;;;;;;6247570;23;20004;-78
2021/07/28 03:50:24;;;;;;;11.63;8.20;;;16.20;96.60;;;;;;6246882;23;20004;-79
2021/07/28 03:52:50;;;;;;;12.93;8.95;;;16.20;96.90;;;;;;6247687;23;20012;-79
2021/07/28 03:55:16;;;;;;;11.40;8.00;;;16.20;97.30;;;;;;6246965;23;20015;-79
2021/07/28 03:57:41;;;;;;;15.35;8.75;;;16.20;97.30;;;;;;6247528;23;20008;-78
2021/07/28 04:00:08;;;;;;;14.80;9.60;;;16.20;97.30;;;;;;6245049;23;20012;-78
2021/07/28 04:02:34;;;;;;;15.05;8.50;;;16.20;97.20;;;;;;6246987;23;20004;-78
2021/07/28 04:05:01;;;;;;;13.10;8.80;;;16.20;97.10;;;;;;6247852;23;20012;-78
2021/07/28 04:07:27;;;;;;;14.60;8.65;;;16.20;97.00;;;;;;6249274;23;20450;-78
2021/07/28 04:09:52;;;;;;;13.48;8.32;;;16.20;97.10;;;;;;6249651;23;20380;-78
2021/07/28 04:12:19;;;;;;;14.80;8.57;;;16.20;97.00;;;;;;6249083;23;20092;-78
2021/07/28 04:14:44;;;;;;;16.23;9.30;;;16.20;96.80;;;;;;6247707;23;19996;-78
2021/07/28 04:17:11;;;;;;;12.45;8.50;;;16.20;96.70;;;;;;6248528;23;20011;-78
2021/07/28 04:19:37;;;;;;;13.45;8.48;;;16.30;96.60;;;;;;6249018;23;20308;-79
2021/07/28 04:22:02;;;;;;;14.00;8.40;;;16.20;96.90;;;;;;6249476;23;20030;-78
2021/07/28 04:24:28;;;;;;;10.88;7.85;;;16.10;96.70;;;;;;6249029;23;20024;-78
2021/07/28 04:26:54;;;;;;;15.45;8.88;;;16.20;96.60;;;;;;6222892;23;20027;-79
2021/07/28 04:29:19;;;;;;;13.15;8.77;;;16.10;96.60;;;;;;6220631;23;20274;-79
2021/07/28 04:31:45;;;;;;;14.52;8.82;;;16.10;96.60;;;;;;6248450;23;20034;-79
2021/07/28 04:34:11;;;;;;;15.50;9.65;;;16.10;96.30;;;;;;6248896;23;20005;-78
2021/07/28 04:36:36;;;;;;;13.40;8.57;;;16.10;96.50;;;;;;6248372;23;20013;-79
2021/07/28 04:39:03;;;;;;;13.55;9.02;;;16.00;96.30;;;;;;6249162;23;20050;-79
2021/07/28 04:41:28;;;;;;;12.27;8.82;;;16.00;96.20;;;;;;6221695;23;20011;-79
2021/07/28 04:43:54;;;;;;;12.70;8.48;;;16.10;95.90;;;;;;6248716;23;20286;-78
2021/07/28 04:46:20;;;;;;;13.63;8.18;;;16.10;95.90;;;;;;6246498;23;20003;-78
2021/07/28 04:48:46;;;;;;;13.70;9.00;;;16.10;95.90;;;;;;6221777;23;20103;-78
2021/07/28 04:51:12;;;;;;;15.02;9.07;;;16.20;95.80;;;;;;6248254;23;20004;-79
2021/07/28 04:53:38;;;;;;;13.25;9.20;;;16.30;95.70;;;;;;6248244;23;20389;-79
2021/07/28 04:56:03;;;;;;;13.68;8.32;;;16.20;96.10;;;;;;6249313;23;20000;-78
2021/07/28 04:58:29;;;;;;;11.43;8.40;;;16.10;96.30;;;;;;6247984;23;20043;-78
2021/07/28 05:00:55;;;;;;;12.43;8.13;;;16.10;96.40;;;;;;6246434;23;20054;-79
2021/07/28 05:03:24;;;;;;;16.35;8.70;;;16.10;96.60;;;;;;6248842;23;19996;-79
2021/07/28 05:05:50;;;;;;;12.30;8.70;;;16.10;96.50;;;;;;6222357;23;20370;-79
2021/07/28 05:08:15;;;;;;;14.80;9.88;;;16.10;96.40;;;;;;6248291;23;20107;-79
2021/07/28 05:10:41;;;;;;;13.00;8.95;;;16.10;96.40;;;;;;6221727;23;20346;-79
2021/07/28 05:13:06;;;;;;;13.88;8.45;;;16.10;96.00;;;;;;6248862;23;20403;-79
2021/07/28 05:15:32;;;;;;;14.18;7.80;;;16.20;96.00;;;;;;6246908;23;20068;-79
2021/07/28 05:17:58;;;;;;;11.77;8.32;;;16.20;96.30;;;;;;6248904;23;20050;-79
2021/07/28 05:20:24;;;;;;;12.77;8.18;;;16.30;96.40;;;;;;6248514;23;20366;-78
2021/07/28 05:22:51;;;;;;;14.05;8.35;;;16.30;96.90;;;;;;6248894;23;20002;-78
2021/07/28 05:25:17;;;;;;;12.35;7.13;;;16.20;97.50;;;;;;6248390;23;20026;-78
2021/07/28 05:27:43;;;;;;;11.45;7.45;;;16.20;97.90;;;;;;6248843;23;20365;-79
2021/07/28 05:30:09;;;;;;;10.68;7.50;;;16.20;97.90;;;;;;6247245;23;20373;-78
2021/07/28 05:32:34;;;;;;;11.68;7.72;;;16.30;98.00;;;;;;6248717;23;20004;-80
2021/07/28 05:35:00;;;;;;;12.75;7.93;;;16.30;98.00;;;;;;6249047;23;20265;-81
2021/07/28 05:37:28;;;;;;;11.82;8.68;;;16.30;98.00;;;;;;6221421;23;20374;-80
2021/07/28 05:39:54;;;;;;;13.85;8.52;;;16.30;98.00;;;;;;6248708;23;20050;-79
2021/07/28 05:42:19;;;;;;;14.63;8.48;;;16.30;98.00;;;;;;6248172;23;20004;-79
2021/07/28 05:44:45;;;;;;;13.60;8.55;;;16.30;98.00;;;;;;6247251;23;20016;-80
2021/07/28 05:47:11;;;;;;;15.00;8.52;;;16.30;98.00;;;;;;6247995;23;20068;-78
2021/07/28 05:49:36;;;;;;;15.77;8.52;;;16.30;98.00;;;;;;6248717;23;20270;-79
2021/07/28 05:52:02;;;;;;;11.80;8.02;;;16.30;98.00;;;;;;6248795;23;20004;-79
2021/07/28 05:54:28;;;;;;;12.77;8.07;;;16.30;98.00;;;;;;6247850;23;20000;-79
2021/07/28 05:56:54;;;;;;;11.82;7.72;;;16.40;98.00;;;;;;6222024;23;20015;-79
2021/07/28 05:59:20;;;;;;;12.23;7.45;;;16.50;98.00;;;;;;6246319;23;20386;-80
2021/07/28 06:01:46;;;;;;;13.85;8.23;;;16.50;98.00;;;;;;6248416;23;20004;-79
2021/07/28 06:04:11;;;;;;;13.65;7.85;;;16.50;98.00;;;;;;6221651;23;20273;-79
2021/07/28 06:06:37;;;;;;;11.02;7.45;;;16.60;98.00;;;;;;6248392;23;20012;-79
2021/07/28 06:09:03;;;;;;;13.65;8.35;;;16.60;98.00;;;;;;6248504;23;20027;-79
2021/07/28 06:11:28;;;;;;;17.73;8.55;;;16.60;98.00;;;;;;6221118;23;20373;-80
2021/07/28 06:13:54;;;;;;;19.63;8.70;;;16.60;98.00;;;;;;6248369;23;20266;-79
2021/07/28 06:16:23;;;;;;;13.05;8.02;;;16.70;98.00;;;;;;6246117;23;20054;-79
2021/07/28 06:18:49;;;;;;;11.52;8.05;;;16.60;98.00;;;;;;6248349;23;20061;-79
2021/07/28 06:21:17;;;;;;;13.30;8.45;;;16.50;98.00;;;;;;6247961;23;20313;-79
2021/07/28 06:23:43;;;;;;;12.15;8.23;;;16.50;98.00;;;;;;6247109;23;20086;-80
2021/07/28 06:26:09;;;;;;;17.10;8.88;;;16.40;98.00;;;;;;6246317;23;20455;-79
2021/07/28 06:28:34;;;;;;;14.45;8.18;;;16.50;98.00;;;;;;6248068;23;20004;-80
2021/07/28 06:31:00;;;;;;;11.35;7.82;;;16.50;98.00;;;;;;6246639;23;20361;-80
2021/07/28 06:33:26;;;;;;;13.68;8.90;;;16.70;98.00;;;;;;6247683;23;20261;-79
2021/07/28 06:35:52;;;;;;;13.52;8.65;;;16.80;98.00;;;;;;6248117;23;20008;-80
2021/07/28 06:38:19;;;;;;;15.88;7.43;;;16.70;98.00;;;;;;6247395;23;20377;-79
2021/07/28 06:40:45;;;;;;;12.50;8.32;;;16.70;98.00;;;;;;6247676;23;20031;-79
2021/07/28 06:43:12;;;;;;;13.30;8.05;;;16.70;98.00;;;;;;6247010;23;19992;-79
2021/07/28 06:45:38;;;;;;;13.02;8.23;;;16.70;98.00;;;;;;6246943;23;20266;-80
2021/07/28 06:48:04;;;;;;;13.77;7.70;;;16.80;98.00;;;;;;6248135;23;20054;-79
2021/07/28 06:50:30;;;;;;;15.95;7.70;;;16.80;98.00;;;;;;6221001;23;20038;-79
2021/07/28 06:52:57;;;;;;;11.85;7.72;;;16.80;98.00;;;;;;6248158;23;20094;-79
2021/07/28 06:55:22;;;;;;;12.60;8.27;;;16.70;98.00;;;;;;6246995;23;20361;-79
2021/07/28 06:57:48;;;;;;;14.18;8.70;;;16.70;98.00;;;;;;6247464;23;20015;-80
2021/07/28 07:00:14;;;;;;;14.65;9.25;;;16.60;98.00;;;;;;6244120;23;20000;-79
2021/07/28 07:02:40;;;;;;;15.50;9.77;;;16.50;98.00;;;;;;6246514;23;20000;-80
2021/07/28 07:05:06;;;;;;;12.18;8.52;;;16.40;98.00;;;;;;6245226;23;20278;-80
2021/07/28 07:07:35;;;;;;;17.85;10.13;;;16.40;98.00;;;;;;6245120;23;20083;-79
2021/07/28 07:10:01;;;;;;;13.15;9.07;;;16.40;98.00;;;;;;6244683;23;20050;-80
2021/07/28 07:12:27;;;;;;;15.82;9.25;;;16.30;98.00;;;;;;6247466;23;20004;-80
2021/07/28 07:14:53;;;;;;;14.43;9.98;;;16.30;98.00;;;;;;6244753;23;20417;-81
2021/07/28 07:17:19;;;;;;;19.73;10.35;;;16.20;98.00;;;;;;6245723;23;20114;-82
2021/07/28 07:19:44;;;;;;;17.75;11.38;;;16.10;98.00;;;;;;6246015;23;20008;-81
2021/07/28 07:22:10;;;;;;;15.07;10.30;;;16.10;97.90;;;;;;6245349;23;20011;-80
2021/07/28 07:24:36;;;;;;;15.15;10.00;;;16.10;97.80;;;;;;6244128;23;20388;-79
2021/07/28 07:27:04;;;;;;;15.57;10.35;;;16.10;97.40;;;;;;6245077;23;20004;-79
2021/07/28 07:29:30;;;;;;;15.57;10.52;;;16.10;97.40;;;;;;6243645;23;20004;-79
2021/07/28 07:31:56;;;;;;;17.48;10.07;;;16.10;97.00;;;;;;6245316;23;20005;-79
2021/07/28 07:34:21;;;;;;;9.18;5.68;;;16.10;97.00;;;;;;6243772;23;20366;-79
2021/07/28 07:36:47;;;;;;;8.73;4.60;;;15.80;98.00;;;;;;6221000;23;20001;-79
2021/07/28 07:39:13;;;;;;;10.63;5.35;;;15.60;98.00;;;;;;6248035;23;20030;-79
2021/07/28 07:41:38;;;;;;;8.93;4.50;;;15.50;98.00;;;;;;6249723;23;19996;-79
2021/07/28 07:44:05;;;;;;;6.97;3.95;;;15.30;98.00;;;;;;6249251;23;20019;-78
2021/07/28 07:46:30;;;;;;;7.00;3.85;;;15.10;98.00;;;;;;6246737;23;20008;-78
2021/07/28 07:48:56;;;;;;;7.80;4.00;;;15.00;98.00;;;;;;6222579;23;20018;-78
2021/07/28 07:51:30;;;;;;;7.63;4.40;;;14.80;98.00;;;;;;6248565;23;20308;-78
2021/07/28 07:53:56;;;;;;;8.30;3.30;;;14.70;98.00;;;;;;6250107;23;20388;-78
2021/07/28 07:56:22;;;;;;;8.05;3.75;;;14.60;98.00;;;;;;6249110;23;20050;-78
2021/07/28 07:58:47;;;;;;;6.97;3.95;;;14.50;98.00;;;;;;6249714;23;20008;-78
2021/07/28 08:01:13;;;;;;;7.85;3.38;;;14.50;98.00;;;;;;6245842;23;20246;-78
2021/07/28 08:03:40;;;;;;;5.20;3.15;;;14.50;98.00;;;;;;6247270;23;20009;-78
2021/07/28 08:06:07;;;;;;;6.72;3.50;;;14.50;98.00;;;;;;6223029;23;20255;-78
2021/07/28 08:08:33;;;;;;;5.47;3.50;;;14.40;98.00;;;;;;6221196;23;20012;-78
2021/07/28 08:11:00;;;;;;;6.45;3.67;;;14.40;98.00;;;;;;6247501;23;20370;-78
2021/07/28 08:13:27;;;;;;;7.47;3.67;;;14.40;98.00;;;;;;6248969;23;20004;-78
2021/07/28 08:15:53;;;;;;;6.05;3.70;;;14.40;98.00;;;;;;6246657;23;20357;-78
2021/07/28 08:18:19;;;;;;;7.10;3.75;;;14.50;98.00;;;;;;6246704;23;20258;-78
2021/07/28 08:20:45;;;;;;;7.10;4.03;;;14.50;98.00;;;;;;6222806;23;20270;-78
2021/07/28 08:23:13;;;;;;;7.10;3.92;;;14.60;98.00;;;;;;6248956;23;20001;-77
2021/07/28 08:25:39;;;;;;;6.90;4.07;;;14.60;98.00;;;;;;6222621;23;19997;-77
2021/07/28 08:28:05;;;;;;;6.38;3.80;;;14.60;98.00;;;;;;6248457;23;20012;-78
2021/07/28 08:30:30;;;;;;;8.70;3.88;;;14.60;98.00;;;;;;6247666;23;20008;-79
2021/07/28 08:32:56;;;;;;;7.82;4.53;;;14.80;98.00;;;;;;6246860;23;20040;-78
2021/07/28 08:35:21;;;;;;;6.72;3.95;;;14.80;98.00;;;;;;6247799;23;20053;-78
2021/07/28 08:37:47;;;;;;;7.70;4.05;;;14.90;98.00;;;;;;6248364;23;20125;-77
2021/07/28 08:40:16;;;;;;;7.22;3.70;;;15.00;98.00;;;;;;6248918;23;20000;-76
2021/07/28 08:42:46;;;;;;;6.20;3.58;;;15.20;98.00;;;;;;6249542;23;20003;-78
2021/07/28 08:45:18;;;;;;;5.68;3.28;;;15.40;98.00;;;;;;6220529;23;20036;-76
2021/07/28 08:47:45;;;;;;;6.63;3.30;;;15.50;98.00;;;;;;6249453;23;20016;-76
2021/07/28 08:50:12;;;;;;;8.23;3.67;;;15.60;98.00;;;;;;6221788;23;20429;-76
2021/07/28 08:52:39;;;;;;;6.38;3.38;;;15.80;98.00;;;;;;6222032;23;20142;-76
2021/07/28 08:55:06;;;;;;;6.18;3.58;;;15.90;98.00;;;;;;6222404;23;20089;-76
2021/07/28 08:57:33;;;;;;;9.65;3.63;;;16.10;98.00;;;;;;6221939;23;20010;-77
2021/07/28 09:00:00;;;;;;;8.68;4.18;;;16.10;98.00;;;;;;6247373;23;20102;-76
2021/07/28 09:02:27;;;;;;;9.20;4.40;;;16.10;98.00;;;;;;6248768;23;20004;-76
2021/07/28 09:04:55;;;;;;;5.82;3.60;;;16.00;98.00;;;;;;6249079;23;20408;-76
2021/07/28 09:07:23;;;;;;;5.65;3.38;;;15.90;98.00;;;;;;6248674;23;20007;-76
2021/07/28 09:09:53;;;;;;;6.43;3.60;;;15.90;98.00;;;;;;6249312;23;20019;-77
2021/07/28 09:12:20;;;;;;;6.75;3.50;;;15.90;98.00;;;;;;6247245;23;20366;-76
2021/07/28 09:14:57;;;;;;;7.60;3.58;;;15.80;97.90;;;;;;6247744;23;20354;-76
2021/07/28 09:17:28;;;;;;;8.98;3.95;;;16.00;97.90;;;;;;6248369;23;20010;-77
2021/07/28 09:19:55;;;;;;;7.10;3.83;;;16.10;98.00;;;;;;6248997;23;20075;-76
2021/07/28 09:22:21;;;;;;;9.00;3.72;;;16.20;97.80;;;;;;6248599;23;20419;-76
2021/07/28 09:25:10;;;;;;;7.43;4.05;;;16.50;97.40;;;;;;6248941;23;19996;-76
2021/07/28 09:27:39;;;;;;;6.60;3.72;;;16.90;97.30;;;;;;6248657;23;20026;-76
2021/07/28 09:30:05;;;;;;;6.75;3.70;;;17.00;97.50;;;;;;6247552;23;20079;-76
2021/07/28 09:32:32;;;;;;;5.90;3.70;;;17.20;96.20;;;;;;6248387;23;20298;-77
2021/07/28 09:34:58;;;;;;;8.65;4.07;;;17.00;95.70;;;;;;6248749;23;20004;-77
2021/07/28 09:37:24;;;;;;;6.10;3.40;;;16.90;96.70;;;;;;6248411;23;20004;-76
2021/07/28 09:39:51;;;;;;;8.20;3.70;;;17.00;96.30;;;;;;6248875;23;20001;-76
2021/07/28 09:42:26;;;;;;;7.88;3.88;;;17.30;97.00;;;;;;6248213;23;20000;-76
2021/07/28 09:44:57;;;;;;;7.05;3.55;;;17.70;96.30;;;;;;6246859;23;20020;-76
2021/07/28 09:47:24;;;;;;;6.57;3.30;;;18.00;96.00;;;;;;6247221;23;20384;-76
2021/07/28 09:49:56;;;;;;;5.22;2.80;;;18.30;94.70;;;;;;6247410;23;20083;-76
2021/07/28 09:52:26;;;;;;;5.95;3.33;;;18.60;94.20;;;;;;6247464;23;20004;-76
2021/07/28 09:54:54;;;;;;;6.55;3.15;;;18.80;93.10;;;;;;6248261;23;20079;-76
2021/07/28 09:57:25;;;;;;;5.82;3.30;;;19.10;92.00;;;;;;6247549;23;20011;-77
2021/07/28 09:59:52;;;;;;;8.27;3.72;;;19.30;92.30;;;;;;6220387;23;20050;-76
2021/07/28 10:02:21;;;;;;;5.43;2.92;;;19.50;92.60;;;;;;6247098;23;20000;-78
2021/07/28 10:04:48;;;;;;;7.05;2.97;;;19.90;91.50;;;;;;6248778;23;20012;-76
2021/07/28 10:07:19;;;;;;;8.23;3.20;;;19.60;88.10;;;;;;6247628;23;20317;-76
2021/07/28 10:10:05;;;;;;;6.35;3.13;;;19.20;89.60;;;;;;6222108;23;20062;-76
2021/07/28 10:12:35;;;;;;;6.47;3.20;;;18.90;90.90;;;;;;6248019;23;20024;-76
2021/07/28 10:15:08;;;;;;;7.85;3.90;;;18.60;89.50;;;;;;6246965;23;20074;-76
2021/07/28 10:17:37;;;;;;;5.65;3.17;;;18.60;91.60;;;;;;6247674;23;20004;-78
2021/07/28 10:20:03;;;;;;;6.97;3.60;;;18.60;91.60;;;;;;6248242;23;20000;-77
2021/07/28 10:22:30;;;;;;;5.97;3.50;;;18.50;92.30;;;;;;6220998;23;20034;-76
2021/07/28 10:24:57;;;;;;;7.93;3.47;;;18.70;92.10;;;;;;6248374;23;20011;-77
2021/07/28 10:27:23;;;;;;;8.10;3.13;;;19.00;91.80;;;;;;6247744;23;20338;-76
2021/07/28 10:29:50;;;;;;;6.30;3.05;;;19.20;91.00;;;;;;6246875;23;20023;-76
2021/07/28 10:32:28;;;;;;;7.00;2.92;;;19.40;86.90;;;;;;6247611;23;20312;-76
2021/07/28 10:35:17;;;;;;;7.35;3.55;;;19.80;86.60;;;;;;6248104;23;20000;-76
2021/07/28 10:37:46;;;;;;;5.80;2.83;;;19.60;85.00;;;;;;6247949;22;20007;-76
2021/07/28 10:40:48;;;;;;;7.13;2.97;;;19.80;86.30;;;;;;6247686;23;20001;-76
2021/07/28 10:43:14;;;;;;;5.45;2.33;;;20.50;86.30;;;;;;6209981;23;20007;-77
2021/07/28 10:45:57;;;;;;;5.85;3.42;;;20.70;82.10;;;;;;6246658;23;20016;-77
2021/07/28 10:48:51;;;;;;;6.78;2.97;;;20.60;84.70;;;;;;6247603;23;20004;-76
2021/07/28 10:51:53;;;;;;;6.25;3.00;;;20.30;83.60;;;;;;6236281;22;20082;-76
2021/07/28 10:54:37;;;;;;;5.45;2.83;;;20.40;84.70;;;;;;6247415;23;20000;-77
2021/07/28 10:57:07;;;;;;;;;;;20.80;85.10;;;;;;6248399;23;19996;-77
2021/07/28 10:59:39;;;;;;;7.10;2.90;;;21.10;81.90;;;;;;6245892;23;19899;-77
2021/07/28 11:02:05;;;;;;;6.15;2.83;;;21.20;82.80;;;;;;6246584;23;20000;-77
2021/07/28 11:04:30;;;;;;;5.43;2.78;;;21.10;82.60;;;;;;6247208;23;20366;-76
2021/07/28 11:06:56;;;;;;;6.38;2.67;;;20.80;81.30;;;;;;6247924;23;20074;-77
2021/07/28 11:09:23;;;;;;;4.90;2.65;;;21.40;81.70;;;;;;6247259;23;20007;-77
2021/07/28 11:11:50;;;;;;;6.00;2.90;;;22.10;79.10;;;;;;6247387;23;20027;-76
2021/07/28 11:14:16;;;;;;;5.78;2.63;;;23.00;77.30;;;;;;6245439;23;20058;-77
2021/07/28 11:16:50;;;;;;;5.90;2.90;;;23.40;76.70;;;;;;6247945;23;20266;-76
2021/07/28 11:19:17;;;;;;;7.28;3.17;;;22.80;76.90;;;;;;6247679;23;20000;-76
2021/07/28 11:21:42;;;;;;;5.57;2.70;;;22.80;78.60;;;;;;6246425;23;20000;-77
2021/07/28 11:24:11;;;;;;;6.35;3.35;;;22.70;76.40;;;;;;6246876;23;20053;-76
2021/07/28 11:26:42;;;;;;;6.13;3.00;;;22.30;77.60;;;;;;6246535;23;20007;-77
2021/07/28 11:29:22;;;;;;;5.55;2.75;;;22.60;74.80;;;;;;6245280;23;20004;-76
2021/07/28 11:31:49;;;;;;;4.75;2.63;;;23.10;75.10;;;;;;6247150;23;20004;-77
2021/07/28 11:34:19;;;;;;;5.65;2.80;;;22.70;75.30;;;;;;6246230;23;20075;-76
2021/07/28 11:36:53;;;;;;;4.82;2.42;;;22.60;77.50;;;;;;6246673;23;20046;-77
2021/07/28 11:39:19;;;;;;;5.57;2.80;;;22.60;78.20;;;;;;6246345;23;20083;-76
2021/07/28 11:41:47;;;;;;;4.97;2.72;;;23.80;77.40;;;;;;6246573;23;20369;-77
2021/07/28 11:44:13;;;;;;;5.85;2.70;;;24.50;76.00;;;;;;6245172;23;20012;-76
2021/07/28 11:46:41;;;;;;;5.85;2.95;;;25.20;73.90;;;;;;6247656;23;20372;-76
2021/07/28 11:49:08;;;;;;;5.50;2.80;;;25.80;72.30;;;;;;6246598;23;20004;-76
2021/07/28 11:51:38;;;;;;;5.03;2.85;;;25.20;69.50;;;;;;6247309;23;20022;-75
2021/07/28 11:54:09;;;;;;;5.18;2.75;;;24.10;71.70;;;;;;6247754;23;20004;-75
2021/07/28 11:56:35;;;;;;;5.93;3.20;;;22.70;76.30;;;;;;6247002;23;20055;-75
2021/07/28 11:59:01;;;;;;;6.57;3.17;;;22.20;76.90;;;;;;6247604;23;20301;-76
2021/07/28 12:01:34;;;;;;;6.10;3.20;;;22.40;77.20;;;;;;6246060;23;20008;-76
2021/07/28 12:04:08;;;;;;;5.70;3.15;;;22.60;77.00;;;;;;6247590;23;20007;-77
2021/07/28 12:06:38;;;;;;;6.80;3.20;;;22.90;76.40;;;;;;6247343;23;19997;-77
2021/07/28 12:09:17;;;;;;;6.90;3.42;;;23.10;77.50;;;;;;6247744;23;20019;-76
2021/07/28 12:12:06;;;;;;;6.93;3.10;;;23.50;75.80;;;;;;6247707;23;19996;-77
2021/07/28 12:14:42;;;;;;;6.38;3.25;;;23.60;72.80;;;;;;6219008;23;20011;-76
2021/07/28 12:17:16;;;;;;;7.15;3.25;;;23.60;72.70;;;;;;6247422;23;20011;-76
2021/07/28 12:20:02;;;;;;;6.15;3.40;;;23.40;75.40;;;;;;6247648;23;20001;-78
2021/07/28 12:22:28;;;;;;;6.00;3.47;;;23.80;72.90;;;;;;6247233;23;20022;-77
2021/07/28 12:24:54;;;;;;;5.88;3.00;;;23.80;73.60;;;;;;6248605;23;20032;-77
2021/07/28 12:27:29;;;;;;;6.60;3.50;;;24.10;73.40;;;;;;6249132;23;20050;-76
2021/07/28 12:30:24;;;;;;;6.43;3.40;;;24.30;71.30;;;;;;6248306;23;20370;-77
2021/07/28 12:33:04;;;;;;;8.02;3.50;;;23.90;71.90;;;;;;6249190;23;20451;-76
2021/07/28 12:35:36;;;;;;;6.57;3.45;;;23.70;71.60;;;;;;6247595;23;20425;-76
2021/07/28 12:38:32;;;;;;;9.88;3.70;;;23.90;72.10;;;;;;6247993;23;20000;-77
2021/07/28 12:41:00;;;;;;;8.25;3.45;;;24.10;72.20;;;;;;6222562;23;20004;-76
2021/07/28 12:43:34;;;;;;;6.00;3.17;;;23.90;73.30;;;;;;6247565;23;20036;-76
2021/07/28 12:46:00;;;;;;;;;;;24.20;72.40;;;;;;6247135;23;20046;-77